Time;durP1;ratioP1;P1;durP2;ratioP2;P2;SDS_P1;SDS_P2;PMS_P1;PMS_P2;Temp;Humidity;BMP_temperature;BMP_pressure;BME280_temperature;BME280_humidity;BME280_pressure;Samples;Min_cycle;Max_cycle;Signal;HPM_P1;HPM_P2
2022/07/14 00:00:08;;;;;;;4.50;4.20;;;21.90;99.90;;;;;;5052235;28;20446;-75
2022/07/14 00:02:35;;;;;;;4.50;4.10;;;21.80;99.90;;;;;;5052138;28;20468;-75
2022/07/14 00:05:03;;;;;;;3.47;3.20;;;21.70;99.90;;;;;;5052269;28;20856;-74
2022/07/14 00:07:30;;;;;;;3.77;3.53;;;21.70;99.90;;;;;;5052058;28;20969;-74
2022/07/14 00:09:57;;;;;;;4.53;4.17;;;21.60;99.90;;;;;;5052632;28;20453;-74
2022/07/14 00:12:24;;;;;;;4.20;3.90;;;21.70;99.90;;;;;;5052570;28;20473;-75
2022/07/14 00:14:50;;;;;;;4.20;3.73;;;21.50;99.90;;;;;;5056403;28;20801;-75
2022/07/14 00:17:17;;;;;;;3.73;3.40;;;21.50;99.90;;;;;;5055979;28;20450;-75
2022/07/14 00:19:44;;;;;;;3.90;3.60;;;21.50;99.90;;;;;;5055695;28;20441;-75
2022/07/14 00:22:12;;;;;;;4.17;3.67;;;21.40;99.90;;;;;;5055932;28;20465;-76
2022/07/14 00:24:39;;;;;;;5.60;3.50;;;21.40;99.90;;;;;;5056658;28;20532;-75
2022/07/14 00:27:05;;;;;;;4.00;3.70;;;21.20;99.90;;;;;;5057907;28;20441;-77
2022/07/14 00:29:32;;;;;;;4.00;3.70;;;21.20;99.90;;;;;;5056334;28;20456;-76
2022/07/14 00:31:59;;;;;;;4.93;3.20;;;21.20;99.90;;;;;;5055607;28;20469;-75
2022/07/14 00:34:26;;;;;;;3.73;3.43;;;21.20;99.90;;;;;;5055419;28;20507;-75
2022/07/14 00:36:52;;;;;;;4.17;3.80;;;21.20;99.90;;;;;;5055165;28;21021;-75
2022/07/14 00:39:20;;;;;;;3.87;3.57;;;21.00;99.90;;;;;;5055055;28;20456;-75
2022/07/14 00:41:48;;;;;;;3.90;3.60;;;21.00;99.90;;;;;;5055282;28;20549;-76
2022/07/14 00:44:15;;;;;;;4.07;3.77;;;21.00;99.90;;;;;;5055197;28;20457;-76
2022/07/14 00:46:42;;;;;;;3.50;3.10;;;21.00;99.90;;;;;;5055372;28;20785;-75
2022/07/14 00:49:09;;;;;;;3.90;3.27;;;20.80;99.90;;;;;;5056088;28;20956;-75
2022/07/14 00:51:35;;;;;;;4.60;3.37;;;20.90;99.90;;;;;;5055620;28;20477;-76
2022/07/14 00:54:02;;;;;;;4.60;3.37;;;20.70;99.90;;;;;;5055729;28;20968;-75
2022/07/14 00:56:30;;;;;;;3.60;3.30;;;20.60;99.90;;;;;;5054945;28;20803;-75
2022/07/14 00:58:57;;;;;;;3.93;2.80;;;20.60;99.90;;;;;;5054897;28;20449;-76
2022/07/14 01:01:23;;;;;;;4.03;2.83;;;20.60;99.90;;;;;;5054820;28;20465;-75
2022/07/14 01:03:50;;;;;;;3.37;3.00;;;20.70;99.90;;;;;;5054729;28;20460;-75
2022/07/14 01:06:17;;;;;;;3.30;3.00;;;20.60;99.90;;;;;;5055059;28;20469;-75
2022/07/14 01:08:43;;;;;;;3.03;2.83;;;20.50;99.90;;;;;;5055077;28;20449;-76
2022/07/14 01:11:10;;;;;;;3.77;3.47;;;20.40;99.90;;;;;;5054367;28;20488;-76
2022/07/14 01:13:39;;;;;;;3.20;2.73;;;20.40;99.90;;;;;;5054836;28;20445;-76
2022/07/14 01:16:06;;;;;;;4.13;3.83;;;20.50;99.90;;;;;;5055031;28;20481;-76
2022/07/14 01:18:33;;;;;;;3.60;2.93;;;20.50;99.90;;;;;;5055843;28;20446;-76
2022/07/14 01:20:59;;;;;;;3.80;3.50;;;20.40;99.90;;;;;;5054719;28;20520;-76
2022/07/14 01:23:28;;;;;;;3.20;2.90;;;20.40;99.90;;;;;;5054357;28;20457;-76
2022/07/14 01:25:54;;;;;;;3.40;3.10;;;20.40;99.90;;;;;;5054809;28;20448;-76
2022/07/14 01:28:21;;;;;;;4.13;3.83;;;20.40;99.90;;;;;;5054838;28;20446;-77
2022/07/14 01:30:48;;;;;;;3.57;3.27;;;20.30;99.90;;;;;;5054532;28;20469;-76
2022/07/14 01:33:14;;;;;;;3.53;3.23;;;20.20;99.90;;;;;;5054158;28;20453;-76
2022/07/14 01:35:41;;;;;;;3.90;3.07;;;20.00;99.90;;;;;;5054616;28;20473;-76
2022/07/14 01:38:08;;;;;;;3.60;3.33;;;20.10;99.90;;;;;;5054140;28;20446;-76
2022/07/14 01:40:36;;;;;;;5.03;3.10;;;19.90;99.90;;;;;;5054489;28;20512;-76
2022/07/14 01:43:03;;;;;;;3.43;3.13;;;19.90;99.90;;;;;;5054174;28;20472;-76
2022/07/14 01:45:32;;;;;;;3.57;3.27;;;20.00;99.90;;;;;;5054216;28;20450;-75
2022/07/14 01:47:59;;;;;;;3.10;2.80;;;19.90;99.90;;;;;;5054138;28;20481;-76
2022/07/14 01:50:26;;;;;;;3.03;2.83;;;19.80;99.90;;;;;;5053998;28;20472;-76
2022/07/14 01:52:52;;;;;;;3.40;3.20;;;19.80;99.90;;;;;;5053778;28;20446;-75
2022/07/14 01:55:19;;;;;;;2.77;2.57;;;19.50;99.90;;;;;;5053974;28;20828;-75
2022/07/14 01:57:47;;;;;;;3.80;2.73;;;19.70;99.90;;;;;;5053936;28;20450;-74
2022/07/14 02:00:14;;;;;;;4.83;2.57;;;19.30;99.90;;;;;;5053922;28;20824;-74
2022/07/14 02:02:41;;;;;;;6.60;2.93;;;19.40;99.90;;;;;;5054554;28;20456;-75
2022/07/14 02:05:09;;;;;;;4.77;3.33;;;19.30;99.90;;;;;;5054814;28;20445;-75
2022/07/14 02:07:36;;;;;;;4.93;3.13;;;19.40;99.90;;;;;;5054507;28;20968;-76
2022/07/14 02:12:48;;;;;;;3.30;3.00;;;19.20;99.90;;;;;;5053900;28;20915;-76
2022/07/14 02:15:15;;;;;;;3.33;2.97;;;19.10;99.90;;;;;;5053875;28;20627;-75
2022/07/14 02:17:42;;;;;;;2.60;2.40;;;19.10;99.90;;;;;;5053747;28;20477;-75
2022/07/14 02:20:10;;;;;;;5.40;2.53;;;19.10;99.90;;;;;;5053389;28;20445;-75
2022/07/14 02:22:37;;;;;;;3.13;2.80;;;19.00;99.90;;;;;;5053145;28;20492;-75
2022/07/14 02:25:05;;;;;;;3.17;2.53;;;19.10;99.90;;;;;;5053273;28;20542;-75
2022/07/14 02:27:31;;;;;;;2.90;2.60;;;19.10;99.90;;;;;;5053024;28;20442;-75
2022/07/14 02:29:59;;;;;;;7.43;2.47;;;19.00;99.90;;;;;;5053365;28;20793;-75
2022/07/14 02:32:29;;;;;;;2.57;2.23;;;18.80;99.90;;;;;;5053153;28;21060;-75
2022/07/14 02:34:56;;;;;;;4.27;2.40;;;18.90;99.90;;;;;;5052467;28;20446;-75
2022/07/14 02:37:22;;;;;;;4.40;2.20;;;18.90;99.90;;;;;;5053032;28;20477;-75
2022/07/14 02:39:49;;;;;;;2.90;2.70;;;18.80;99.90;;;;;;5053257;28;20453;-75
2022/07/14 02:42:16;;;;;;;3.00;2.70;;;18.60;99.90;;;;;;5053306;28;20618;-75
2022/07/14 02:44:42;;;;;;;3.73;2.30;;;18.70;99.90;;;;;;5053181;28;20797;-75
2022/07/14 02:47:10;;;;;;;3.27;2.70;;;18.70;99.90;;;;;;5053286;28;20511;-75
2022/07/14 02:49:37;;;;;;;7.00;2.87;;;18.50;99.90;;;;;;5053342;28;20441;-75
2022/07/14 02:52:04;;;;;;;2.27;2.07;;;18.50;99.90;;;;;;5053195;28;20828;-75
2022/07/14 02:54:31;;;;;;;3.53;2.40;;;18.40;99.90;;;;;;5053239;28;20463;-75
2022/07/14 02:56:58;;;;;;;4.33;2.30;;;18.40;99.90;;;;;;5052396;28;20489;-75
2022/07/14 02:59:24;;;;;;;3.33;2.47;;;18.30;99.90;;;;;;5052741;28;20446;-75
2022/07/14 03:01:51;;;;;;;3.33;2.57;;;18.30;99.90;;;;;;5052809;28;20478;-75
2022/07/14 03:04:19;;;;;;;6.53;2.60;;;18.30;99.90;;;;;;5052871;28;20507;-76
2022/07/14 03:06:46;;;;;;;4.17;3.20;;;18.20;99.90;;;;;;5052666;28;20441;-75
2022/07/14 03:09:13;;;;;;;5.13;2.70;;;18.20;99.90;;;;;;5052681;28;20450;-75
2022/07/14 03:11:39;;;;;;;2.97;2.60;;;18.20;99.90;;;;;;5052177;28;20473;-75
2022/07/14 03:14:06;;;;;;;5.20;2.40;;;18.10;99.90;;;;;;5052754;28;20871;-75
2022/07/14 03:16:32;;;;;;;5.03;2.20;;;18.00;99.90;;;;;;5052454;28;20477;-76
2022/07/14 03:18:59;;;;;;;3.63;2.80;;;18.00;99.90;;;;;;5052577;28;20460;-75
2022/07/14 03:21:27;;;;;;;10.57;3.23;;;18.00;99.90;;;;;;5052689;28;20477;-75
2022/07/14 03:23:54;;;;;;;4.10;2.43;;;17.90;99.90;;;;;;5052665;28;20492;-76
2022/07/14 03:26:21;;;;;;;2.67;2.30;;;17.90;99.90;;;;;;5052454;28;20442;-75
2022/07/14 03:28:47;;;;;;;4.30;2.30;;;17.70;99.90;;;;;;5053020;28;20488;-75
2022/07/14 03:31:14;;;;;;;6.88;3.33;;;17.70;99.90;;;;;;5051437;28;20443;-75
2022/07/14 03:33:41;;;;;;;15.63;10.00;;;17.40;99.90;;;;;;5052653;28;20203;-75
2022/07/14 03:36:08;;;;;;;31.57;21.20;;;17.40;99.90;;;;;;5052342;28;20816;-75
2022/07/14 03:38:36;;;;;;;6.73;5.07;;;17.60;99.90;;;;;;5052484;28;20445;-76
2022/07/14 03:41:03;;;;;;;9.77;4.00;;;17.50;99.90;;;;;;5053107;28;20469;-76
2022/07/14 03:43:30;;;;;;;6.07;2.90;;;17.60;99.90;;;;;;5053288;28;20449;-75
2022/07/14 03:45:57;;;;;;;6.83;3.20;;;17.70;99.90;;;;;;5052709;28;20449;-75
2022/07/14 03:48:24;;;;;;;4.80;2.70;;;17.70;99.90;;;;;;5056614;28;20442;-75
2022/07/14 03:50:51;;;;;;;21.43;14.90;;;17.60;99.90;;;;;;5056098;28;20972;-75
2022/07/14 03:53:18;;;;;;;18.80;14.00;;;17.40;99.90;;;;;;5056108;28;20445;-75
2022/07/14 03:55:46;;;;;;;10.20;3.67;;;17.40;99.90;;;;;;5056266;28;20979;-75
2022/07/14 03:58:12;;;;;;;8.03;4.57;;;17.40;99.90;;;;;;5056291;28;20481;-75
2022/07/14 04:00:39;;;;;;;4.33;3.00;;;17.40;99.90;;;;;;5056244;28;20488;-75
2022/07/14 04:03:06;;;;;;;13.03;5.60;;;17.30;99.90;;;;;;5056116;28;20453;-75
2022/07/14 04:05:33;;;;;;;5.00;2.93;;;17.30;99.90;;;;;;5056203;28;20423;-76
2022/07/14 04:08:00;;;;;;;8.03;3.17;;;17.20;99.90;;;;;;5055935;28;20951;-76
2022/07/14 04:12:56;;;;;;;5.23;3.00;;;16.90;99.90;;;;;;5076222;28;20967;-78
2022/07/14 04:15:23;;;;;;;22.40;16.03;;;17.00;99.90;;;;;;5076592;28;20448;-78
2022/07/14 04:17:50;;;;;;;8.23;4.33;;;17.10;99.90;;;;;;5076479;28;20557;-78
2022/07/14 04:20:17;;;;;;;10.17;2.80;;;17.00;99.90;;;;;;5076538;28;20440;-78
2022/07/14 04:22:44;;;;;;;9.67;3.53;;;17.10;99.90;;;;;;5084615;28;20510;-76
2022/07/14 04:25:12;;;;;;;14.93;6.67;;;17.00;99.90;;;;;;5079308;28;20449;-77
2022/07/14 04:27:39;;;;;;;10.90;5.90;;;17.10;99.90;;;;;;5081943;28;20977;-78
2022/07/14 04:30:08;;;;;;;10.53;5.87;;;17.20;99.90;;;;;;5077501;28;20436;-78
2022/07/14 04:32:35;;;;;;;8.10;4.00;;;17.20;99.90;;;;;;5079843;28;20472;-78
2022/07/14 04:35:02;;;;;;;6.20;2.83;;;17.20;99.90;;;;;;5077404;28;20445;-78
2022/07/14 04:37:29;;;;;;;6.03;2.87;;;17.10;99.90;;;;;;5076910;28;20272;-78
2022/07/14 04:39:56;;;;;;;6.63;3.03;;;16.80;99.90;;;;;;5076067;28;20449;-78
2022/07/14 04:42:23;;;;;;;4.77;2.80;;;16.50;99.90;;;;;;5076055;28;20468;-78
2022/07/14 04:44:50;;;;;;;13.97;5.30;;;16.80;99.90;;;;;;5076159;28;20452;-78
2022/07/14 04:47:18;;;;;;;7.03;3.30;;;16.80;99.90;;;;;;5075753;28;20445;-78
2022/07/14 04:52:30;;;;;;;7.50;3.03;;;16.90;99.90;;;;;;5078715;28;20519;-78
2022/07/14 04:54:57;;;;;;;29.30;15.80;;;16.80;99.90;;;;;;5075845;28;20794;-78
2022/07/14 04:57:23;;;;;;;10.37;5.80;;;16.80;99.90;;;;;;5076781;28;20480;-78
2022/07/14 04:59:50;;;;;;;11.03;3.60;;;17.00;99.90;;;;;;5076389;28;20946;-78
2022/07/14 05:02:18;;;;;;;22.93;15.67;;;16.90;99.90;;;;;;5078483;28;20468;-78
2022/07/14 05:04:45;;;;;;;6.83;4.17;;;17.00;99.90;;;;;;5079793;28;20863;-77
2022/07/14 05:07:12;;;;;;;14.00;8.20;;;17.10;99.90;;;;;;5078057;28;20441;-77
2022/07/14 05:09:39;;;;;;;13.93;9.43;;;17.10;99.90;;;;;;5076261;28;20459;-77
2022/07/14 05:12:06;;;;;;;7.00;2.53;;;17.30;99.90;;;;;;5075456;28;20476;-77
2022/07/14 05:14:33;;;;;;;11.23;5.40;;;17.30;99.90;;;;;;5075371;28;20478;-77
2022/07/14 05:17:00;;;;;;;5.27;3.07;;;17.30;99.90;;;;;;5075325;28;20480;-77
2022/07/14 05:19:29;;;;;;;10.23;3.40;;;16.90;99.90;;;;;;5075241;28;20449;-77
2022/07/14 05:21:55;;;;;;;5.77;3.10;;;16.90;99.90;;;;;;5075095;28;20479;-77
2022/07/14 05:24:22;;;;;;;6.70;3.47;;;16.90;99.90;;;;;;5075109;28;20480;-77
2022/07/14 05:26:49;;;;;;;11.87;2.90;;;16.80;99.90;;;;;;5075053;28;20836;-77
2022/07/14 05:29:16;;;;;;;12.90;3.70;;;16.80;99.90;;;;;;5075276;28;20451;-78
2022/07/14 05:31:42;;;;;;;5.20;3.23;;;17.00;99.90;;;;;;5075282;28;20468;-78
2022/07/14 05:34:09;;;;;;;8.63;3.03;;;17.20;99.90;;;;;;5074941;28;20452;-77
2022/07/14 05:36:37;;;;;;;7.30;3.10;;;17.20;99.90;;;;;;5075395;28;20445;-78
2022/07/14 05:39:04;;;;;;;4.83;2.00;;;17.30;99.90;;;;;;5076757;28;20440;-77
2022/07/14 05:41:30;;;;;;;5.67;3.10;;;17.40;99.90;;;;;;5077727;28;20472;-77
2022/07/14 05:43:57;;;;;;;5.33;2.67;;;17.40;99.90;;;;;;5077990;28;20444;-78
2022/07/14 05:46:24;;;;;;;6.70;2.77;;;17.40;99.90;;;;;;5075011;28;20521;-78
2022/07/14 05:48:51;;;;;;;9.00;2.30;;;17.40;99.90;;;;;;5074610;28;20444;-77
2022/07/14 05:51:20;;;;;;;11.73;2.50;;;17.40;99.90;;;;;;5074965;28;20468;-78
2022/07/14 05:53:49;;;;;;;4.80;2.60;;;17.30;99.90;;;;;;5074534;28;20514;-77
2022/07/14 05:56:17;;;;;;;5.27;2.20;;;17.30;99.90;;;;;;5074648;28;20488;-77
2022/07/14 05:58:44;;;;;;;6.17;2.50;;;17.20;99.90;;;;;;5074361;28;20576;-77
2022/07/14 06:01:12;;;;;;;10.70;3.60;;;17.40;99.90;;;;;;5074269;28;20465;-77
2022/07/14 06:03:38;;;;;;;4.67;2.10;;;17.60;99.90;;;;;;5077100;28;20860;-77
2022/07/14 06:06:07;;;;;;;7.83;3.43;;;17.60;99.90;;;;;;5074548;28;20858;-77
2022/07/14 06:08:34;;;;;;;5.90;2.70;;;17.70;99.90;;;;;;5073911;28;20441;-77
2022/07/14 06:11:03;;;;;;;7.00;2.90;;;17.80;99.90;;;;;;5074047;28;20480;-77
2022/07/14 06:13:31;;;;;;;8.60;2.77;;;17.60;99.90;;;;;;5073966;28;20494;-77
2022/07/14 06:15:59;;;;;;;3.07;2.40;;;17.60;99.90;;;;;;5074256;28;20456;-77
2022/07/14 06:18:27;;;;;;;8.03;2.87;;;17.70;99.90;;;;;;5074297;28;20488;-77
2022/07/14 06:20:54;;;;;;;5.70;2.37;;;17.80;99.90;;;;;;5073909;28;20534;-77
2022/07/14 06:23:21;;;;;;;7.10;2.83;;;18.10;99.90;;;;;;5073881;28;20449;-77
2022/07/14 06:25:48;;;;;;;7.33;2.70;;;18.10;99.90;;;;;;5073593;28;20983;-77
2022/07/14 06:28:16;;;;;;;8.30;2.83;;;17.90;99.90;;;;;;5073470;28;20445;-77
2022/07/14 06:30:43;;;;;;;6.80;2.63;;;17.90;99.90;;;;;;5074015;28;20445;-77
2022/07/14 06:33:10;;;;;;;5.50;2.97;;;17.80;99.90;;;;;;5073563;28;20471;-77
2022/07/14 06:35:38;;;;;;;2.50;2.30;;;17.80;99.90;;;;;;5073378;28;20452;-77
2022/07/14 06:38:05;;;;;;;6.50;2.30;;;17.80;99.90;;;;;;5073712;28;20563;-77
2022/07/14 06:40:32;;;;;;;11.17;2.70;;;17.70;99.90;;;;;;5074304;28;20456;-77
2022/07/14 06:42:58;;;;;;;3.30;2.33;;;17.60;99.90;;;;;;5073451;28;20445;-78
2022/07/14 06:45:26;;;;;;;9.47;3.87;;;17.60;99.90;;;;;;5074178;28;20445;-77
2022/07/14 06:47:53;;;;;;;10.60;2.93;;;17.70;99.90;;;;;;5074501;28;20445;-78
2022/07/14 06:50:20;;;;;;;4.67;2.07;;;17.70;99.90;;;;;;5074117;28;20460;-77
2022/07/14 06:52:47;;;;;;;9.03;3.07;;;17.80;99.90;;;;;;5074280;28;20831;-77
2022/07/14 06:55:14;;;;;;;6.07;2.43;;;18.00;99.90;;;;;;5074288;28;20455;-77
2022/07/14 06:57:41;;;;;;;5.00;2.60;;;18.30;99.90;;;;;;5073929;28;20488;-77
2022/07/14 07:00:08;;;;;;;3.00;2.13;;;18.50;99.90;;;;;;5075116;28;20456;-78
2022/07/14 07:02:37;;;;;;;5.07;2.30;;;18.60;99.90;;;;;;5072969;28;20471;-77
2022/07/14 07:07:50;;;;;;;5.00;2.23;;;18.20;99.90;;;;;;5073784;28;20408;-78
2022/07/14 07:10:17;;;;;;;4.57;2.10;;;17.60;99.90;;;;;;5074528;28;20445;-77
2022/07/14 07:12:43;;;;;;;7.00;2.33;;;17.60;99.90;;;;;;5076107;28;20867;-77
2022/07/14 07:15:11;;;;;;;4.90;2.10;;;17.90;99.90;;;;;;5073728;28;20449;-77
2022/07/14 07:17:39;;;;;;;8.17;4.60;;;18.10;99.90;;;;;;5073704;28;20488;-77
2022/07/14 07:20:09;;;;;;;5.67;1.80;;;18.10;99.90;;;;;;5073620;28;20452;-77
2022/07/14 07:22:36;;;;;;;6.50;2.23;;;18.20;99.90;;;;;;5079983;28;20501;-77
2022/07/14 07:25:03;;;;;;;4.80;2.27;;;18.30;99.90;;;;;;5079775;28;20444;-78
2022/07/14 07:27:31;;;;;;;3.53;1.83;;;18.10;99.90;;;;;;5080837;28;20467;-77
2022/07/14 07:30:00;;;;;;;4.40;2.53;;;18.30;99.90;;;;;;5080256;28;20452;-77
2022/07/14 07:32:26;;;;;;;3.83;2.33;;;18.30;99.90;;;;;;5079762;28;20563;-77
2022/07/14 07:34:55;;;;;;;6.63;2.57;;;18.50;99.90;;;;;;5079760;28;20455;-77
2022/07/14 07:37:21;;;;;;;4.30;2.23;;;18.30;99.90;;;;;;5080843;28;20527;-77
2022/07/14 07:39:48;;;;;;;8.00;2.67;;;18.20;99.90;;;;;;5079778;28;20528;-78
2022/07/14 07:42:15;;;;;;;6.80;3.80;;;18.40;99.90;;;;;;5079425;28;20471;-77
2022/07/14 07:44:42;;;;;;;5.67;2.30;;;18.60;99.90;;;;;;5079201;28;20433;-77
2022/07/14 07:47:08;;;;;;;4.10;2.37;;;18.60;99.90;;;;;;5079211;28;20452;-77
2022/07/14 07:49:35;;;;;;;6.97;2.00;;;18.80;99.90;;;;;;5080524;28;20448;-77
2022/07/14 07:52:03;;;;;;;6.93;3.13;;;18.90;99.90;;;;;;5079894;28;20522;-77
2022/07/14 07:54:30;;;;;;;5.70;2.37;;;18.90;99.90;;;;;;5080662;28;20444;-78
2022/07/14 07:56:59;;;;;;;4.67;3.10;;;18.80;99.90;;;;;;5083311;28;20444;-78
2022/07/14 07:59:27;;;;;;;7.17;4.30;;;18.70;99.90;;;;;;5087434;28;20484;-78
2022/07/14 08:01:54;;;;;;;18.13;3.17;;;18.80;99.90;;;;;;5082363;28;20583;-78
2022/07/14 08:04:22;;;;;;;5.63;2.97;;;18.70;99.90;;;;;;5081802;28;20444;-77
2022/07/14 08:06:48;;;;;;;8.30;3.43;;;18.70;99.90;;;;;;5081375;28;20502;-78
2022/07/14 08:09:16;;;;;;;5.40;1.90;;;18.60;99.90;;;;;;5080905;28;20448;-78
2022/07/14 08:11:43;;;;;;;3.73;1.57;;;18.60;99.90;;;;;;5079727;28;20483;-77
2022/07/14 08:16:52;;;;;;;4.20;2.20;;;18.70;99.90;;;;;;5078385;28;20429;-78
2022/07/14 08:19:19;;;;;;;2.40;1.50;;;18.70;99.90;;;;;;5079808;28;20495;-77
2022/07/14 08:21:45;;;;;;;3.30;1.60;;;18.90;99.90;;;;;;5079699;28;20471;-77
2022/07/14 08:24:12;;;;;;;4.60;2.50;;;19.00;99.90;;;;;;5083016;28;20449;-78
2022/07/14 08:26:40;;;;;;;3.60;2.43;;;18.90;99.90;;;;;;5080350;28;20471;-78
2022/07/14 08:29:07;;;;;;;8.97;3.10;;;19.00;99.90;;;;;;5080456;28;20468;-78
2022/07/14 08:31:34;;;;;;;3.93;1.40;;;19.00;99.90;;;;;;5079391;28;20464;-78
2022/07/14 08:34:01;;;;;;;5.13;1.80;;;19.10;99.90;;;;;;5075483;28;20455;-78
2022/07/14 08:36:27;;;;;;;5.93;1.80;;;19.20;99.90;;;;;;5076119;28;20452;-77
2022/07/14 08:38:54;;;;;;;3.40;1.40;;;19.10;99.90;;;;;;5077289;28;20477;-77
2022/07/14 08:41:21;;;;;;;6.63;2.57;;;19.20;99.90;;;;;;5077249;28;20465;-78
2022/07/14 08:43:51;;;;;;;2.50;1.10;;;19.20;99.90;;;;;;5077285;28;20606;-78
2022/07/14 08:46:18;;;;;;;2.50;1.47;;;19.30;99.90;;;;;;5075855;28;20464;-77
2022/07/14 08:48:46;;;;;;;2.93;1.83;;;19.40;99.90;;;;;;5075366;28;20448;-77
2022/07/14 08:51:13;;;;;;;1.80;1.43;;;19.40;99.90;;;;;;5075864;28;20857;-77
2022/07/14 08:53:40;;;;;;;5.20;1.50;;;19.50;99.90;;;;;;5076608;28;20445;-78
2022/07/14 08:56:07;;;;;;;4.40;1.70;;;19.50;99.90;;;;;;5075863;28;20796;-79
2022/07/14 08:58:34;;;;;;;3.70;1.60;;;19.40;99.90;;;;;;5075615;28;21080;-77
2022/07/14 09:01:02;;;;;;;3.37;1.60;;;19.40;99.90;;;;;;5076350;28;20472;-77
2022/07/14 09:03:28;;;;;;;4.30;1.83;;;19.40;99.90;;;;;;5088923;28;20445;-77
2022/07/14 09:05:55;;;;;;;2.73;1.20;;;19.40;99.90;;;;;;5079102;28;20449;-78
2022/07/14 09:08:22;;;;;;;1.60;1.13;;;19.50;99.90;;;;;;5078883;28;20490;-77
2022/07/14 09:10:49;;;;;;;7.57;3.70;;;19.60;99.90;;;;;;5076147;28;20580;-77
2022/07/14 09:13:18;;;;;;;3.30;1.43;;;19.80;99.90;;;;;;5075725;28;20842;-78
2022/07/14 09:15:46;;;;;;;3.77;1.53;;;19.90;99.90;;;;;;5075308;28;20464;-78
2022/07/14 09:18:21;;;;;;;5.67;1.60;;;19.90;99.90;;;;;;5075237;28;20485;-78
2022/07/14 09:20:47;;;;;;;3.00;2.10;;;19.90;99.90;;;;;;5075420;28;20464;-79
2022/07/14 09:23:14;;;;;;;4.93;1.70;;;20.00;99.90;;;;;;5074996;28;20502;-78
2022/07/14 09:25:41;;;;;;;2.70;1.67;;;20.10;99.90;;;;;;5074891;28;20449;-77
2022/07/14 09:28:08;;;;;;;7.47;2.00;;;20.20;99.90;;;;;;5075531;28;20463;-77
2022/07/14 09:30:35;;;;;;;3.13;1.50;;;20.30;99.90;;;;;;5074778;28;20449;-77
2022/07/14 09:33:03;;;;;;;2.40;1.47;;;20.10;99.90;;;;;;5074649;28;20455;-77
2022/07/14 09:35:42;;;;;;;5.33;1.93;;;20.30;99.90;;;;;;5074748;28;20452;-77
2022/07/14 09:38:17;;;;;;;1.93;1.23;;;20.30;99.90;;;;;;5074767;28;20968;-77
2022/07/14 09:40:44;;;;;;;7.07;1.60;;;20.60;99.90;;;;;;5074294;28;21020;-77
2022/07/14 09:43:13;;;;;;;6.37;1.57;;;20.20;99.90;;;;;;5074547;28;20449;-78
2022/07/14 09:45:41;;;;;;;2.17;1.40;;;20.20;99.90;;;;;;5074176;28;20445;-77
2022/07/14 09:48:09;;;;;;;2.60;1.20;;;20.20;99.90;;;;;;5074268;28;20448;-77
2022/07/14 09:50:43;;;;;;;3.33;1.50;;;20.40;99.90;;;;;;5074702;28;20440;-77
2022/07/14 09:53:24;;;;;;;4.17;1.50;;;20.30;99.90;;;;;;5074086;28;20926;-79
2022/07/14 09:55:59;;;;;;;2.37;1.43;;;20.50;99.90;;;;;;5074392;28;20429;-77
2022/07/14 09:58:28;;;;;;;3.50;1.53;;;20.60;99.90;;;;;;5074216;28;20491;-77
2022/07/14 10:00:57;;;;;;;1.97;1.40;;;20.70;99.90;;;;;;5074314;28;20464;-77
2022/07/14 10:03:27;;;;;;;6.03;1.40;;;20.90;99.90;;;;;;5074897;28;20449;-77
2022/07/14 10:05:56;;;;;;;2.33;0.93;;;20.90;99.90;;;;;;5074327;28;20445;-76
2022/07/14 10:08:25;;;;;;;4.23;1.20;;;21.00;99.90;;;;;;5074743;28;20441;-77
2022/07/14 10:13:25;;;;;;;2.50;1.53;;;20.90;99.90;;;;;;5092463;28;20543;-76
2022/07/14 10:15:54;;;;;;;2.63;1.13;;;20.90;99.90;;;;;;5094425;28;20822;-76
2022/07/14 10:18:22;;;;;;;3.73;1.53;;;21.10;99.90;;;;;;5094694;28;20514;-77
2022/07/14 10:20:52;;;;;;;3.13;1.33;;;21.10;99.90;;;;;;5094230;28;20493;-75
2022/07/14 10:23:22;;;;;;;4.37;1.17;;;21.10;99.90;;;;;;5094738;28;20788;-76
2022/07/14 10:25:50;;;;;;;9.47;1.50;;;21.10;99.90;;;;;;5094766;28;20497;-76
2022/07/14 10:28:18;;;;;;;1.70;1.00;;;21.20;99.90;;;;;;5094184;28;20861;-76
2022/07/14 10:30:57;;;;;;;4.07;1.43;;;21.20;99.90;;;;;;5094062;28;20454;-77
2022/07/14 10:33:34;;;;;;;2.83;0.93;;;21.30;99.90;;;;;;5094314;28;20843;-76
2022/07/14 10:36:13;;;;;;;2.80;1.23;;;21.20;99.90;;;;;;5094910;28;20515;-76
2022/07/14 10:39:09;;;;;;;2.13;1.53;;;21.40;99.90;;;;;;5094572;28;20470;-76
2022/07/14 10:41:58;;;;;;;4.73;1.47;;;21.40;99.90;;;;;;5094577;28;20468;-75
2022/07/14 10:44:28;;;;;;;1.97;1.20;;;21.40;99.90;;;;;;5095230;28;20440;-77
2022/07/14 10:47:08;;;;;;;2.60;2.00;;;21.40;99.90;;;;;;5095000;28;20444;-75
2022/07/14 10:50:08;;;;;;;2.17;1.20;;;21.50;99.90;;;;;;5095097;28;20440;-76
2022/07/14 10:52:38;;;;;;;3.00;1.40;;;21.70;99.90;;;;;;5094208;28;20451;-76
2022/07/14 10:55:16;;;;;;;2.40;1.23;;;21.90;99.90;;;;;;5095257;28;20448;-76
2022/07/14 10:58:15;;;;;;;1.60;1.50;;;22.00;99.90;;;;;;5094130;28;20440;-77
2022/07/14 11:00:56;;;;;;;2.20;1.13;;;21.90;99.90;;;;;;5088289;28;20957;-76
2022/07/14 11:03:25;;;;;;;1.53;1.37;;;21.80;99.90;;;;;;5093634;28;20902;-76
2022/07/14 11:06:12;;;;;;;1.97;1.33;;;21.80;99.90;;;;;;5094799;28;20489;-76
2022/07/14 11:08:40;;;;;;;3.83;1.30;;;21.60;99.90;;;;;;5095193;28;20440;-76
2022/07/14 11:11:19;;;;;;;2.60;1.00;;;21.70;99.90;;;;;;5095624;28;21024;-76
2022/07/14 11:14:07;;;;;;;5.13;2.40;;;22.00;99.90;;;;;;5098371;28;20767;-76
2022/07/14 11:16:57;;;;;;;1.83;1.20;;;22.00;99.90;;;;;;5103530;28;20440;-76
2022/07/14 11:19:28;;;;;;;7.60;1.30;;;22.20;99.90;;;;;;5103710;28;20487;-76
2022/07/14 11:22:16;;;;;;;4.53;3.33;;;22.30;99.90;;;;;;5097889;28;20468;-76
2022/07/14 11:24:53;;;;;;;2.20;1.37;;;22.20;99.90;;;;;;5094849;28;20454;-77
2022/07/14 11:27:33;;;;;;;4.77;1.30;;;21.80;99.90;;;;;;5094076;28;20427;-77
2022/07/14 11:30:22;;;;;;;5.37;1.20;;;21.70;99.90;;;;;;5094136;28;20841;-77
2022/07/14 11:33:03;;;;;;;1.83;1.20;;;21.60;97.50;;;;;;5093158;28;20996;-76
2022/07/14 11:38:37;;;;;;;3.50;1.40;;;22.00;99.30;;;;;;5093307;28;20415;-76
2022/07/14 11:41:08;;;;;;;1.90;1.00;;;22.20;97.10;;;;;;5093075;28;20487;-75
2022/07/14 11:43:48;;;;;;;1.80;1.00;;;22.20;96.50;;;;;;5092940;28;20541;-76
2022/07/14 11:46:17;;;;;;;2.00;1.03;;;22.30;95.80;;;;;;5093048;28;20812;-76
2022/07/14 11:48:48;;;;;;;3.23;1.23;;;22.20;98.30;;;;;;5092773;28;20980;-77
2022/07/14 11:51:22;;;;;;;2.87;1.43;;;22.30;97.00;;;;;;5093064;28;20464;-76
2022/07/14 11:53:55;;;;;;;3.07;1.40;;;22.20;99.40;;;;;;5093144;28;20440;-76
2022/07/14 11:56:23;;;;;;;5.00;1.10;;;22.40;96.70;;;;;;5092687;28;20428;-76
2022/07/14 11:58:52;;;;;;;3.40;1.80;;;22.40;95.60;;;;;;5093046;28;20479;-76
2022/07/14 12:01:20;;;;;;;2.57;1.70;;;22.50;96.30;;;;;;5093063;28;20475;-77
2022/07/14 12:03:48;;;;;;;2.50;1.60;;;22.30;95.70;;;;;;5092941;28;20448;-76
2022/07/14 12:06:15;;;;;;;1.20;0.90;;;22.50;97.90;;;;;;5092907;28;20531;-75
2022/07/14 12:08:44;;;;;;;1.97;1.00;;;22.40;94.40;;;;;;5095596;28;20467;-76
2022/07/14 12:11:13;;;;;;;2.10;1.37;;;22.50;97.90;;;;;;5096311;28;20558;-76
2022/07/14 12:13:53;;;;;;;1.90;1.00;;;22.50;96.40;;;;;;5096883;28;20429;-75
2022/07/14 12:16:20;;;;;;;3.10;1.10;;;22.60;99.00;;;;;;5096676;28;20438;-76
2022/07/14 12:18:48;;;;;;;3.10;1.10;;;22.70;94.60;;;;;;5096761;28;20447;-77
2022/07/14 12:21:15;;;;;;;2.00;1.00;;;22.80;95.00;;;;;;5096573;28;20974;-76
2022/07/14 12:23:52;;;;;;;1.80;1.20;;;22.70;93.90;;;;;;5096991;28;20451;-76
2022/07/14 12:26:20;;;;;;;1.67;0.90;;;22.60;93.30;;;;;;5096647;28;20500;-76
2022/07/14 12:28:49;;;;;;;1.50;1.20;;;22.50;94.70;;;;;;5096802;28;20444;-75
2022/07/14 12:31:19;;;;;;;3.77;3.43;;;22.70;95.90;;;;;;5096424;28;20521;-75
2022/07/14 12:33:47;;;;;;;3.20;2.33;;;22.80;93.60;;;;;;5096731;28;20456;-76
2022/07/14 12:36:16;;;;;;;1.20;0.93;;;23.00;92.90;;;;;;5096718;28;20489;-76
2022/07/14 12:38:43;;;;;;;2.20;0.70;;;23.10;91.80;;;;;;5096194;28;20501;-77
2022/07/14 12:41:11;;;;;;;6.33;1.00;;;23.20;91.00;;;;;;5096256;28;20463;-76
2022/07/14 12:43:41;;;;;;;2.37;0.97;;;23.30;92.40;;;;;;5096396;28;20447;-76
2022/07/14 12:46:09;;;;;;;2.43;1.40;;;23.40;90.90;;;;;;5096746;28;20455;-76
2022/07/14 12:48:58;;;;;;;1.30;1.10;;;23.40;88.10;;;;;;5096391;28;20448;-77
2022/07/14 12:51:26;;;;;;;1.57;1.10;;;23.50;83.10;;;;;;5096403;28;20544;-76
2022/07/14 12:54:15;;;;;;;1.23;0.70;;;23.40;84.00;;;;;;5096329;28;20456;-76
2022/07/14 12:56:51;;;;;;;3.73;1.00;;;23.20;85.80;;;;;;5097137;28;20436;-76
2022/07/14 12:59:20;;;;;;;2.23;0.87;;;23.20;86.70;;;;;;5095835;28;20512;-74
2022/07/14 13:01:49;;;;;;;2.33;1.37;;;23.10;81.90;;;;;;5098885;28;20464;-77
2022/07/14 13:04:33;;;;;;;2.03;1.20;;;23.00;83.60;;;;;;5099561;28;20444;-76
2022/07/14 13:07:03;;;;;;;2.50;1.10;;;22.90;87.60;;;;;;5097949;28;20486;-76
2022/07/14 13:09:30;;;;;;;1.37;0.97;;;23.00;83.50;;;;;;5095647;28;20450;-75
2022/07/14 13:11:57;;;;;;;6.03;5.27;;;23.10;89.10;;;;;;5095173;28;20487;-75